Terminal Aerodrome Forecast
Issued by NWS

Home | Current Version | Previous Version | Text Only | Print | Product List | Glossary On
Versions: 1 2 3 4 5 6 7 8 9 10 11 12 13 14 15
000
FTUS42 KTBW 221700
TAFLAL
TAF
KLAL 221739Z 2218/2318 VRB05KT P6SM VCTS BKN035CB BKN250
     FM230100 VRB03KT P6SM FEW010 SCT030 BKN250
     FM231400 21005KT P6SM SCT015 SCT250=

USA.gov is the U.S. government's official web portal to all federal, state and local government web resources and services.